sensor_id;sensor_type;location;lat;lon;timestamp;P1;durP1;ratioP1;P2;durP2;ratioP2
28547;SDS011;68292;49.600;8.746;2023-04-24T00:00:44;1.58;;;1.00;;
28547;SDS011;68292;49.600;8.746;2023-04-24T00:03:13;1.30;;;1.20;;
28547;SDS011;68292;49.600;8.746;2023-04-24T00:05:42;1.37;;;1.27;;
28547;SDS011;68292;49.600;8.746;2023-04-24T00:08:12;1.85;;;1.35;;
28547;SDS011;68292;49.600;8.746;2023-04-24T00:10:40;1.20;;;0.93;;
28547;SDS011;68292;49.600;8.746;2023-04-24T00:13:09;1.43;;;1.33;;
28547;SDS011;68292;49.600;8.746;2023-04-24T00:15:38;1.20;;;1.10;;
28547;SDS011;68292;49.600;8.746;2023-04-24T00:18:07;1.10;;;1.00;;
28547;SDS011;68292;49.600;8.746;2023-04-24T00:20:35;1.50;;;1.40;;
28547;SDS011;68292;49.600;8.746;2023-04-24T00:23:04;1.42;;;1.10;;
28547;SDS011;68292;49.600;8.746;2023-04-24T00:25:35;1.00;;;1.00;;
28547;SDS011;68292;49.600;8.746;2023-04-24T00:28:03;1.90;;;1.45;;
28547;SDS011;68292;49.600;8.746;2023-04-24T00:30:32;1.47;;;1.17;;
28547;SDS011;68292;49.600;8.746;2023-04-24T00:33:01;1.60;;;1.13;;
28547;SDS011;68292;49.600;8.746;2023-04-24T00:35:30;1.00;;;1.00;;
28547;SDS011;68292;49.600;8.746;2023-04-24T00:37:58;1.80;;;1.10;;
28547;SDS011;68292;49.600;8.746;2023-04-24T00:40:27;2.03;;;1.30;;
28547;SDS011;68292;49.600;8.746;2023-04-24T00:42:58;3.43;;;1.00;;
28547;SDS011;68292;49.600;8.746;2023-04-24T00:45:26;1.57;;;1.30;;
28547;SDS011;68292;49.600;8.746;2023-04-24T00:47:57;1.53;;;1.10;;
28547;SDS011;68292;49.600;8.746;2023-04-24T00:50:28;2.57;;;1.20;;
28547;SDS011;68292;49.600;8.746;2023-04-24T00:52:57;1.77;;;1.20;;
28547;SDS011;68292;49.600;8.746;2023-04-24T00:55:25;1.58;;;1.15;;
28547;SDS011;68292;49.600;8.746;2023-04-24T00:57:54;2.53;;;1.40;;
28547;SDS011;68292;49.600;8.746;2023-04-24T01:00:24;1.27;;;1.13;;
28547;SDS011;68292;49.600;8.746;2023-04-24T01:02:54;2.17;;;1.50;;
28547;SDS011;68292;49.600;8.746;2023-04-24T01:05:25;2.57;;;1.17;;
28547;SDS011;68292;49.600;8.746;2023-04-24T01:07:54;2.07;;;1.40;;
28547;SDS011;68292;49.600;8.746;2023-04-24T01:10:23;1.30;;;1.20;;
28547;SDS011;68292;49.600;8.746;2023-04-24T01:12:53;2.10;;;1.33;;
28547;SDS011;68292;49.600;8.746;2023-04-24T01:15:22;2.23;;;1.23;;
28547;SDS011;68292;49.600;8.746;2023-04-24T01:17:52;1.43;;;1.33;;
28547;SDS011;68292;49.600;8.746;2023-04-24T01:20:21;2.77;;;1.40;;
28547;SDS011;68292;49.600;8.746;2023-04-24T01:22:52;1.30;;;1.20;;
28547;SDS011;68292;49.600;8.746;2023-04-24T01:25:24;1.83;;;1.20;;
28547;SDS011;68292;49.600;8.746;2023-04-24T01:27:56;1.25;;;1.15;;
28547;SDS011;68292;49.600;8.746;2023-04-24T01:30:25;1.57;;;1.20;;
28547;SDS011;68292;49.600;8.746;2023-04-24T01:32:56;2.50;;;1.20;;
28547;SDS011;68292;49.600;8.746;2023-04-24T01:35:26;2.77;;;1.33;;
28547;SDS011;68292;49.600;8.746;2023-04-24T01:37:56;1.50;;;1.40;;
28547;SDS011;68292;49.600;8.746;2023-04-24T01:40:26;5.93;;;1.30;;
28547;SDS011;68292;49.600;8.746;2023-04-24T01:42:57;1.60;;;1.20;;
28547;SDS011;68292;49.600;8.746;2023-04-24T01:45:26;1.70;;;1.30;;
28547;SDS011;68292;49.600;8.746;2023-04-24T01:47:55;1.60;;;1.50;;
28547;SDS011;68292;49.600;8.746;2023-04-24T01:50:25;2.23;;;1.50;;
28547;SDS011;68292;49.600;8.746;2023-04-24T01:52:53;1.23;;;1.10;;
28547;SDS011;68292;49.600;8.746;2023-04-24T01:55:23;3.10;;;1.20;;
28547;SDS011;68292;49.600;8.746;2023-04-24T01:57:52;1.17;;;1.00;;
28547;SDS011;68292;49.600;8.746;2023-04-24T02:00:24;3.03;;;1.27;;
28547;SDS011;68292;49.600;8.746;2023-04-24T02:02:52;1.23;;;1.13;;
28547;SDS011;68292;49.600;8.746;2023-04-24T02:05:21;2.87;;;1.40;;
28547;SDS011;68292;49.600;8.746;2023-04-24T02:07:50;2.40;;;1.23;;
28547;SDS011;68292;49.600;8.746;2023-04-24T02:10:19;1.67;;;1.00;;
28547;SDS011;68292;49.600;8.746;2023-04-24T02:12:49;1.33;;;1.10;;
28547;SDS011;68292;49.600;8.746;2023-04-24T02:15:18;1.23;;;1.03;;
28547;SDS011;68292;49.600;8.746;2023-04-24T02:17:46;2.00;;;1.10;;
28547;SDS011;68292;49.600;8.746;2023-04-24T02:20:15;3.53;;;1.27;;
28547;SDS011;68292;49.600;8.746;2023-04-24T02:22:44;2.73;;;1.37;;
28547;SDS011;68292;49.600;8.746;2023-04-24T02:25:13;1.47;;;1.13;;
28547;SDS011;68292;49.600;8.746;2023-04-24T02:27:41;2.30;;;1.40;;
28547;SDS011;68292;49.600;8.746;2023-04-24T02:30:12;3.13;;;1.23;;
28547;SDS011;68292;49.600;8.746;2023-04-24T02:32:41;3.43;;;1.20;;
28547;SDS011;68292;49.600;8.746;2023-04-24T02:35:10;1.40;;;1.30;;
28547;SDS011;68292;49.600;8.746;2023-04-24T02:37:39;1.23;;;1.10;;
28547;SDS011;68292;49.600;8.746;2023-04-24T02:40:11;1.30;;;1.20;;
28547;SDS011;68292;49.600;8.746;2023-04-24T02:42:40;1.23;;;1.10;;
28547;SDS011;68292;49.600;8.746;2023-04-24T02:45:09;2.43;;;1.37;;
28547;SDS011;68292;49.600;8.746;2023-04-24T02:47:39;4.57;;;1.30;;
28547;SDS011;68292;49.600;8.746;2023-04-24T02:50:08;1.80;;;1.00;;
28547;SDS011;68292;49.600;8.746;2023-04-24T02:52:37;1.20;;;1.10;;
28547;SDS011;68292;49.600;8.746;2023-04-24T02:55:06;6.83;;;1.70;;
28547;SDS011;68292;49.600;8.746;2023-04-24T02:57:35;5.13;;;1.70;;
28547;SDS011;68292;49.600;8.746;2023-04-24T03:00:07;1.67;;;1.33;;
28547;SDS011;68292;49.600;8.746;2023-04-24T03:02:39;3.17;;;1.60;;
28547;SDS011;68292;49.600;8.746;2023-04-24T03:05:08;4.15;;;1.80;;
28547;SDS011;68292;49.600;8.746;2023-04-24T03:07:38;1.80;;;1.43;;
28547;SDS011;68292;49.600;8.746;2023-04-24T03:10:07;4.20;;;1.60;;
28547;SDS011;68292;49.600;8.746;2023-04-24T03:12:37;2.00;;;1.40;;
28547;SDS011;68292;49.600;8.746;2023-04-24T03:15:06;3.03;;;1.60;;
28547;SDS011;68292;49.600;8.746;2023-04-24T03:17:36;2.97;;;1.07;;
28547;SDS011;68292;49.600;8.746;2023-04-24T03:20:07;1.27;;;1.10;;
28547;SDS011;68292;49.600;8.746;2023-04-24T03:22:37;1.23;;;1.13;;
28547;SDS011;68292;49.600;8.746;2023-04-24T03:25:07;1.30;;;1.20;;
28547;SDS011;68292;49.600;8.746;2023-04-24T03:27:37;2.00;;;1.40;;
28547;SDS011;68292;49.600;8.746;2023-04-24T03:30:15;2.33;;;1.20;;
28547;SDS011;68292;49.600;8.746;2023-04-24T03:32:51;2.10;;;1.20;;
28547;SDS011;68292;49.600;8.746;2023-04-24T03:35:24;2.67;;;1.10;;
28547;SDS011;68292;49.600;8.746;2023-04-24T03:37:54;1.37;;;1.27;;
28547;SDS011;68292;49.600;8.746;2023-04-24T03:40:49;1.40;;;1.30;;
28547;SDS011;68292;49.600;8.746;2023-04-24T03:43:31;1.57;;;1.47;;
28547;SDS011;68292;49.600;8.746;2023-04-24T03:46:01;1.93;;;1.20;;
28547;SDS011;68292;49.600;8.746;2023-04-24T03:48:36;1.40;;;1.30;;
28547;SDS011;68292;49.600;8.746;2023-04-24T03:51:07;1.23;;;1.20;;
28547;SDS011;68292;49.600;8.746;2023-04-24T03:53:38;1.43;;;1.33;;
28547;SDS011;68292;49.600;8.746;2023-04-24T03:56:08;2.40;;;1.60;;
28547;SDS011;68292;49.600;8.746;2023-04-24T03:58:37;1.53;;;1.43;;
28547;SDS011;68292;49.600;8.746;2023-04-24T04:01:06;1.53;;;1.43;;
28547;SDS011;68292;49.600;8.746;2023-04-24T04:03:50;1.63;;;1.53;;
28547;SDS011;68292;49.600;8.746;2023-04-24T04:06:22;1.33;;;1.13;;
28547;SDS011;68292;49.600;8.746;2023-04-24T04:08:53;2.07;;;1.53;;
28547;SDS011;68292;49.600;8.746;2023-04-24T04:11:21;2.03;;;1.60;;
28547;SDS011;68292;49.600;8.746;2023-04-24T04:13:50;1.60;;;1.47;;
28547;SDS011;68292;49.600;8.746;2023-04-24T04:16:21;2.30;;;1.60;;
28547;SDS011;68292;49.600;8.746;2023-04-24T04:18:56;1.70;;;1.60;;
28547;SDS011;68292;49.600;8.746;2023-04-24T04:21:25;3.43;;;1.77;;
28547;SDS011;68292;49.600;8.746;2023-04-24T04:24:04;4.43;;;1.83;;
28547;SDS011;68292;49.600;8.746;2023-04-24T04:26:37;1.80;;;1.70;;
28547;SDS011;68292;49.600;8.746;2023-04-24T04:29:09;3.00;;;1.60;;
28547;SDS011;68292;49.600;8.746;2023-04-24T04:31:42;2.17;;;1.97;;
28547;SDS011;68292;49.600;8.746;2023-04-24T04:34:13;4.87;;;2.00;;
28547;SDS011;68292;49.600;8.746;2023-04-24T04:36:43;2.50;;;1.97;;
28547;SDS011;68292;49.600;8.746;2023-04-24T04:39:34;2.30;;;2.10;;
28547;SDS011;68292;49.600;8.746;2023-04-24T04:42:06;2.07;;;1.83;;
28547;SDS011;68292;49.600;8.746;2023-04-24T04:44:40;2.67;;;2.03;;
28547;SDS011;68292;49.600;8.746;2023-04-24T04:47:16;3.53;;;2.23;;
28547;SDS011;68292;49.600;8.746;2023-04-24T04:49:47;2.40;;;2.20;;
28547;SDS011;68292;49.600;8.746;2023-04-24T04:52:19;2.10;;;1.90;;
28547;SDS011;68292;49.600;8.746;2023-04-24T04:54:57;2.20;;;2.00;;
28547;SDS011;68292;49.600;8.746;2023-04-24T04:57:40;3.93;;;2.33;;
28547;SDS011;68292;49.600;8.746;2023-04-24T05:00:09;2.67;;;2.30;;
28547;SDS011;68292;49.600;8.746;2023-04-24T05:02:46;2.70;;;2.50;;
28547;SDS011;68292;49.600;8.746;2023-04-24T05:05:17;2.57;;;2.20;;
28547;SDS011;68292;49.600;8.746;2023-04-24T05:07:47;2.30;;;2.10;;
28547;SDS011;68292;49.600;8.746;2023-04-24T05:10:16;2.97;;;2.40;;
28547;SDS011;68292;49.600;8.746;2023-04-24T05:12:45;2.50;;;2.30;;
28547;SDS011;68292;49.600;8.746;2023-04-24T05:15:14;3.27;;;2.57;;
28547;SDS011;68292;49.600;8.746;2023-04-24T05:17:43;2.50;;;2.30;;
28547;SDS011;68292;49.600;8.746;2023-04-24T05:20:13;2.23;;;2.13;;
28547;SDS011;68292;49.600;8.746;2023-04-24T05:22:43;2.83;;;2.40;;
28547;SDS011;68292;49.600;8.746;2023-04-24T05:25:14;2.33;;;2.10;;
28547;SDS011;68292;49.600;8.746;2023-04-24T05:27:54;3.43;;;2.10;;
28547;SDS011;68292;49.600;8.746;2023-04-24T05:30:23;2.33;;;2.23;;
28547;SDS011;68292;49.600;8.746;2023-04-24T05:32:53;2.57;;;2.30;;
28547;SDS011;68292;49.600;8.746;2023-04-24T05:35:22;3.23;;;2.33;;
28547;SDS011;68292;49.600;8.746;2023-04-24T05:37:52;2.40;;;2.20;;
28547;SDS011;68292;49.600;8.746;2023-04-24T05:40:21;4.17;;;2.07;;
28547;SDS011;68292;49.600;8.746;2023-04-24T05:42:50;2.30;;;2.10;;
28547;SDS011;68292;49.600;8.746;2023-04-24T05:45:20;2.30;;;2.10;;
28547;SDS011;68292;49.600;8.746;2023-04-24T05:47:48;2.40;;;2.20;;
28547;SDS011;68292;49.600;8.746;2023-04-24T05:50:19;3.90;;;2.30;;
28547;SDS011;68292;49.600;8.746;2023-04-24T05:52:48;3.03;;;2.20;;
28547;SDS011;68292;49.600;8.746;2023-04-24T05:55:29;2.67;;;2.47;;
28547;SDS011;68292;49.600;8.746;2023-04-24T05:57:58;2.63;;;2.43;;
28547;SDS011;68292;49.600;8.746;2023-04-24T06:00:28;2.50;;;2.30;;
28547;SDS011;68292;49.600;8.746;2023-04-24T06:03:03;3.77;;;3.13;;
28547;SDS011;68292;49.600;8.746;2023-04-24T06:05:32;3.30;;;2.80;;
28547;SDS011;68292;49.600;8.746;2023-04-24T06:08:02;3.13;;;2.83;;
28547;SDS011;68292;49.600;8.746;2023-04-24T06:10:36;2.97;;;2.77;;
28547;SDS011;68292;49.600;8.746;2023-04-24T06:13:07;2.73;;;2.53;;
28547;SDS011;68292;49.600;8.746;2023-04-24T06:15:39;3.90;;;2.70;;
28547;SDS011;68292;49.600;8.746;2023-04-24T06:18:13;3.20;;;2.90;;
28547;SDS011;68292;49.600;8.746;2023-04-24T06:20:41;3.30;;;3.00;;
28547;SDS011;68292;49.600;8.746;2023-04-24T06:23:10;3.20;;;2.93;;
28547;SDS011;68292;49.600;8.746;2023-04-24T06:25:40;4.03;;;3.13;;
28547;SDS011;68292;49.600;8.746;2023-04-24T06:28:12;5.33;;;3.30;;
28547;SDS011;68292;49.600;8.746;2023-04-24T06:30:40;4.27;;;3.70;;
28547;SDS011;68292;49.600;8.746;2023-04-24T06:33:11;3.93;;;3.53;;
28547;SDS011;68292;49.600;8.746;2023-04-24T06:35:44;3.23;;;3.03;;
28547;SDS011;68292;49.600;8.746;2023-04-24T06:38:13;3.67;;;3.37;;
28547;SDS011;68292;49.600;8.746;2023-04-24T06:40:44;3.67;;;3.37;;
28547;SDS011;68292;49.600;8.746;2023-04-24T06:43:13;3.87;;;3.53;;
28547;SDS011;68292;49.600;8.746;2023-04-24T06:45:42;3.90;;;3.60;;
28547;SDS011;68292;49.600;8.746;2023-04-24T06:48:12;4.03;;;3.70;;
28547;SDS011;68292;49.600;8.746;2023-04-24T06:50:40;4.53;;;3.50;;
28547;SDS011;68292;49.600;8.746;2023-04-24T06:53:09;4.63;;;3.40;;
28547;SDS011;68292;49.600;8.746;2023-04-24T06:55:39;4.33;;;4.03;;
28547;SDS011;68292;49.600;8.746;2023-04-24T06:58:11;5.57;;;4.00;;
28547;SDS011;68292;49.600;8.746;2023-04-24T07:00:40;3.90;;;3.60;;
28547;SDS011;68292;49.600;8.746;2023-04-24T07:03:09;4.00;;;3.70;;
28547;SDS011;68292;49.600;8.746;2023-04-24T07:05:38;3.30;;;3.00;;
28547;SDS011;68292;49.600;8.746;2023-04-24T07:08:08;3.47;;;3.20;;
28547;SDS011;68292;49.600;8.746;2023-04-24T07:10:37;3.77;;;3.37;;
28547;SDS011;68292;49.600;8.746;2023-04-24T07:13:06;4.77;;;4.13;;
28547;SDS011;68292;49.600;8.746;2023-04-24T07:15:36;4.30;;;3.90;;
28547;SDS011;68292;49.600;8.746;2023-04-24T07:18:07;5.07;;;4.57;;
28547;SDS011;68292;49.600;8.746;2023-04-24T07:20:36;4.73;;;3.43;;
28547;SDS011;68292;49.600;8.746;2023-04-24T07:23:05;4.17;;;3.60;;
28547;SDS011;68292;49.600;8.746;2023-04-24T07:25:33;3.87;;;3.33;;
28547;SDS011;68292;49.600;8.746;2023-04-24T07:28:02;3.13;;;2.83;;
28547;SDS011;68292;49.600;8.746;2023-04-24T07:30:31;4.00;;;2.50;;
28547;SDS011;68292;49.600;8.746;2023-04-24T07:33:01;3.00;;;2.17;;
28547;SDS011;68292;49.600;8.746;2023-04-24T07:35:30;2.47;;;2.27;;
28547;SDS011;68292;49.600;8.746;2023-04-24T07:38:02;2.57;;;2.20;;
28547;SDS011;68292;49.600;8.746;2023-04-24T07:40:30;2.23;;;2.03;;
28547;SDS011;68292;49.600;8.746;2023-04-24T07:42:59;1.70;;;1.60;;
28547;SDS011;68292;49.600;8.746;2023-04-24T07:45:28;2.10;;;2.00;;
28547;SDS011;68292;49.600;8.746;2023-04-24T07:47:57;2.40;;;2.10;;
28547;SDS011;68292;49.600;8.746;2023-04-24T07:50:27;2.23;;;1.70;;
28547;SDS011;68292;49.600;8.746;2023-04-24T07:52:56;1.80;;;1.70;;
28547;SDS011;68292;49.600;8.746;2023-04-24T07:55:25;1.77;;;1.67;;
28547;SDS011;68292;49.600;8.746;2023-04-24T07:57:54;2.33;;;2.10;;
28547;SDS011;68292;49.600;8.746;2023-04-24T08:00:22;2.43;;;1.73;;
28547;SDS011;68292;49.600;8.746;2023-04-24T08:02:51;2.07;;;1.93;;
28547;SDS011;68292;49.600;8.746;2023-04-24T08:05:20;2.10;;;1.80;;
28547;SDS011;68292;49.600;8.746;2023-04-24T08:07:50;2.10;;;1.90;;
28547;SDS011;68292;49.600;8.746;2023-04-24T08:10:22;1.97;;;1.87;;
28547;SDS011;68292;49.600;8.746;2023-04-24T08:12:54;3.10;;;2.20;;
28547;SDS011;68292;49.600;8.746;2023-04-24T08:15:22;2.30;;;2.10;;
28547;SDS011;68292;49.600;8.746;2023-04-24T08:17:51;1.80;;;1.70;;
28547;SDS011;68292;49.600;8.746;2023-04-24T08:20:22;2.33;;;2.13;;
28547;SDS011;68292;49.600;8.746;2023-04-24T08:22:53;2.27;;;2.10;;
28547;SDS011;68292;49.600;8.746;2023-04-24T08:25:22;2.90;;;2.60;;
28547;SDS011;68292;49.600;8.746;2023-04-24T08:27:51;3.23;;;2.33;;
28547;SDS011;68292;49.600;8.746;2023-04-24T08:30:21;2.00;;;1.90;;
28547;SDS011;68292;49.600;8.746;2023-04-24T08:32:49;1.83;;;1.73;;
28547;SDS011;68292;49.600;8.746;2023-04-24T08:35:18;2.57;;;2.37;;
28547;SDS011;68292;49.600;8.746;2023-04-24T08:37:47;3.60;;;2.30;;
28547;SDS011;68292;49.600;8.746;2023-04-24T08:40:17;2.70;;;2.50;;
28547;SDS011;68292;49.600;8.746;2023-04-24T08:42:47;6.03;;;5.33;;
28547;SDS011;68292;49.600;8.746;2023-04-24T08:45:18;7.63;;;4.80;;
28547;SDS011;68292;49.600;8.746;2023-04-24T08:47:47;3.77;;;3.40;;
28547;SDS011;68292;49.600;8.746;2023-04-24T08:50:17;3.47;;;3.17;;
28547;SDS011;68292;49.600;8.746;2023-04-24T08:52:46;2.93;;;2.50;;
28547;SDS011;68292;49.600;8.746;2023-04-24T08:55:18;3.77;;;2.40;;
28547;SDS011;68292;49.600;8.746;2023-04-24T08:57:50;3.17;;;2.97;;
28547;SDS011;68292;49.600;8.746;2023-04-24T09:00:20;4.50;;;3.10;;
28547;SDS011;68292;49.600;8.746;2023-04-24T09:02:49;3.60;;;3.27;;
28547;SDS011;68292;49.600;8.746;2023-04-24T09:05:21;2.97;;;2.73;;
28547;SDS011;68292;49.600;8.746;2023-04-24T09:07:54;2.97;;;2.47;;
28547;SDS011;68292;49.600;8.746;2023-04-24T09:10:25;2.70;;;2.50;;
28547;SDS011;68292;49.600;8.746;2023-04-24T09:12:57;2.97;;;2.77;;
28547;SDS011;68292;49.600;8.746;2023-04-24T09:15:28;2.73;;;2.53;;
28547;SDS011;68292;49.600;8.746;2023-04-24T09:17:57;4.03;;;2.30;;
28547;SDS011;68292;49.600;8.746;2023-04-24T09:20:26;3.60;;;3.17;;
28547;SDS011;68292;49.600;8.746;2023-04-24T09:22:56;2.77;;;2.57;;
28547;SDS011;68292;49.600;8.746;2023-04-24T09:25:31;3.10;;;2.90;;
28547;SDS011;68292;49.600;8.746;2023-04-24T09:28:03;3.53;;;3.23;;
28547;SDS011;68292;49.600;8.746;2023-04-24T09:30:33;3.20;;;2.90;;
28547;SDS011;68292;49.600;8.746;2023-04-24T09:33:11;4.90;;;3.03;;
28547;SDS011;68292;49.600;8.746;2023-04-24T09:35:41;3.10;;;2.90;;
28547;SDS011;68292;49.600;8.746;2023-04-24T09:38:10;3.43;;;3.13;;
28547;SDS011;68292;49.600;8.746;2023-04-24T09:40:40;3.43;;;2.60;;
28547;SDS011;68292;49.600;8.746;2023-04-24T09:43:11;2.57;;;2.37;;
28547;SDS011;68292;49.600;8.746;2023-04-24T09:45:41;2.53;;;2.33;;
28547;SDS011;68292;49.600;8.746;2023-04-24T09:48:10;2.80;;;2.37;;
28547;SDS011;68292;49.600;8.746;2023-04-24T09:50:39;2.37;;;2.17;;
28547;SDS011;68292;49.600;8.746;2023-04-24T09:53:13;2.73;;;2.40;;
28547;SDS011;68292;49.600;8.746;2023-04-24T09:55:44;2.87;;;2.67;;
28547;SDS011;68292;49.600;8.746;2023-04-24T09:58:15;3.13;;;2.83;;
28547;SDS011;68292;49.600;8.746;2023-04-24T10:00:44;2.40;;;2.20;;
28547;SDS011;68292;49.600;8.746;2023-04-24T10:03:14;2.90;;;2.33;;
28547;SDS011;68292;49.600;8.746;2023-04-24T10:05:44;3.00;;;2.30;;
28547;SDS011;68292;49.600;8.746;2023-04-24T10:08:14;2.33;;;2.13;;
28547;SDS011;68292;49.600;8.746;2023-04-24T10:10:45;2.70;;;2.50;;
28547;SDS011;68292;49.600;8.746;2023-04-24T10:13:14;2.50;;;2.30;;
28547;SDS011;68292;49.600;8.746;2023-04-24T10:15:43;2.47;;;2.27;;
28547;SDS011;68292;49.600;8.746;2023-04-24T10:18:13;2.40;;;2.20;;
28547;SDS011;68292;49.600;8.746;2023-04-24T10:20:43;2.53;;;2.33;;
28547;SDS011;68292;49.600;8.746;2023-04-24T10:23:12;3.10;;;2.07;;
28547;SDS011;68292;49.600;8.746;2023-04-24T10:25:41;3.77;;;3.03;;
28547;SDS011;68292;49.600;8.746;2023-04-24T10:28:11;2.60;;;2.30;;
28547;SDS011;68292;49.600;8.746;2023-04-24T10:30:41;4.50;;;3.73;;
28547;SDS011;68292;49.600;8.746;2023-04-24T10:33:11;6.60;;;3.20;;
28547;SDS011;68292;49.600;8.746;2023-04-24T10:35:41;3.00;;;2.80;;
28547;SDS011;68292;49.600;8.746;2023-04-24T10:38:15;2.70;;;2.50;;
28547;SDS011;68292;49.600;8.746;2023-04-24T10:40:50;2.80;;;2.60;;
28547;SDS011;68292;49.600;8.746;2023-04-24T10:43:20;3.07;;;2.77;;
28547;SDS011;68292;49.600;8.746;2023-04-24T10:46:01;2.60;;;2.30;;
28547;SDS011;68292;49.600;8.746;2023-04-24T10:48:32;2.23;;;2.13;;
28547;SDS011;68292;49.600;8.746;2023-04-24T10:51:01;2.20;;;2.10;;
28547;SDS011;68292;49.600;8.746;2023-04-24T10:53:30;3.27;;;2.40;;
28547;SDS011;68292;49.600;8.746;2023-04-24T10:56:03;2.13;;;2.03;;
28547;SDS011;68292;49.600;8.746;2023-04-24T10:58:39;3.00;;;2.20;;
28547;SDS011;68292;49.600;8.746;2023-04-24T11:01:22;2.27;;;2.07;;
28547;SDS011;68292;49.600;8.746;2023-04-24T11:03:54;3.20;;;2.20;;
28547;SDS011;68292;49.600;8.746;2023-04-24T11:06:28;2.50;;;2.27;;
28547;SDS011;68292;49.600;8.746;2023-04-24T11:09:01;2.67;;;2.30;;
28547;SDS011;68292;49.600;8.746;2023-04-24T11:11:33;4.33;;;2.23;;
28547;SDS011;68292;49.600;8.746;2023-04-24T11:14:05;2.73;;;2.37;;
28547;SDS011;68292;49.600;8.746;2023-04-24T11:16:44;3.27;;;2.13;;
28547;SDS011;68292;49.600;8.746;2023-04-24T11:19:18;2.93;;;2.73;;
28547;SDS011;68292;49.600;8.746;2023-04-24T11:21:55;3.73;;;2.67;;
28547;SDS011;68292;49.600;8.746;2023-04-24T11:24:27;2.73;;;2.53;;
28547;SDS011;68292;49.600;8.746;2023-04-24T11:27:04;2.80;;;2.60;;
28547;SDS011;68292;49.600;8.746;2023-04-24T11:29:40;4.67;;;2.40;;
28547;SDS011;68292;49.600;8.746;2023-04-24T11:32:15;2.30;;;2.20;;
28547;SDS011;68292;49.600;8.746;2023-04-24T11:34:47;2.70;;;2.50;;
28547;SDS011;68292;49.600;8.746;2023-04-24T11:37:17;3.47;;;3.13;;
28547;SDS011;68292;49.600;8.746;2023-04-24T11:39:46;5.70;;;5.20;;
28547;SDS011;68292;49.600;8.746;2023-04-24T11:42:18;3.47;;;3.17;;
28547;SDS011;68292;49.600;8.746;2023-04-24T11:44:51;4.73;;;3.10;;
28547;SDS011;68292;49.600;8.746;2023-04-24T11:47:28;3.20;;;2.37;;
28547;SDS011;68292;49.600;8.746;2023-04-24T11:49:57;3.73;;;3.40;;
28547;SDS011;68292;49.600;8.746;2023-04-24T11:52:28;4.03;;;3.17;;
28547;SDS011;68292;49.600;8.746;2023-04-24T11:54:57;3.10;;;2.90;;
28547;SDS011;68292;49.600;8.746;2023-04-24T11:57:28;3.87;;;3.10;;
28547;SDS011;68292;49.600;8.746;2023-04-24T12:00:02;3.77;;;3.40;;
28547;SDS011;68292;49.600;8.746;2023-04-24T12:02:38;3.03;;;2.83;;
28547;SDS011;68292;49.600;8.746;2023-04-24T12:05:07;4.40;;;3.33;;
28547;SDS011;68292;49.600;8.746;2023-04-24T12:07:40;3.27;;;3.03;;
28547;SDS011;68292;49.600;8.746;2023-04-24T12:10:10;3.00;;;2.80;;
28547;SDS011;68292;49.600;8.746;2023-04-24T12:12:39;3.70;;;3.30;;
28547;SDS011;68292;49.600;8.746;2023-04-24T12:15:09;4.53;;;3.00;;
28547;SDS011;68292;49.600;8.746;2023-04-24T12:17:41;3.33;;;3.00;;
28547;SDS011;68292;49.600;8.746;2023-04-24T12:20:10;3.17;;;2.87;;
28547;SDS011;68292;49.600;8.746;2023-04-24T12:22:45;4.47;;;4.07;;
28547;SDS011;68292;49.600;8.746;2023-04-24T12:25:15;4.53;;;4.20;;
28547;SDS011;68292;49.600;8.746;2023-04-24T12:27:46;5.20;;;4.40;;
28547;SDS011;68292;49.600;8.746;2023-04-24T12:30:25;4.50;;;3.77;;
28547;SDS011;68292;49.600;8.746;2023-04-24T12:32:56;8.27;;;4.73;;
28547;SDS011;68292;49.600;8.746;2023-04-24T12:35:27;4.43;;;4.03;;
28547;SDS011;68292;49.600;8.746;2023-04-24T12:38:04;4.00;;;3.70;;
28547;SDS011;68292;49.600;8.746;2023-04-24T12:40:34;3.63;;;3.33;;
28547;SDS011;68292;49.600;8.746;2023-04-24T12:43:12;3.50;;;3.20;;
28547;SDS011;68292;49.600;8.746;2023-04-24T12:45:47;3.87;;;3.37;;
28547;SDS011;68292;49.600;8.746;2023-04-24T12:48:16;3.60;;;3.30;;
28547;SDS011;68292;49.600;8.746;2023-04-24T12:50:46;5.53;;;3.57;;
28547;SDS011;68292;49.600;8.746;2023-04-24T12:53:16;4.20;;;3.60;;
28547;SDS011;68292;49.600;8.746;2023-04-24T12:55:44;4.33;;;3.50;;
28547;SDS011;68292;49.600;8.746;2023-04-24T12:58:19;3.73;;;3.43;;
28547;SDS011;68292;49.600;8.746;2023-04-24T13:00:49;3.70;;;3.20;;
28547;SDS011;68292;49.600;8.746;2023-04-24T13:03:18;3.63;;;3.20;;
28547;SDS011;68292;49.600;8.746;2023-04-24T13:05:49;3.90;;;3.47;;
28547;SDS011;68292;49.600;8.746;2023-04-24T13:08:17;4.67;;;3.70;;
28547;SDS011;68292;49.600;8.746;2023-04-24T13:10:46;3.73;;;3.43;;
28547;SDS011;68292;49.600;8.746;2023-04-24T13:13:15;3.87;;;3.20;;
28547;SDS011;68292;49.600;8.746;2023-04-24T13:15:44;3.90;;;3.60;;
28547;SDS011;68292;49.600;8.746;2023-04-24T13:18:14;4.63;;;4.23;;
28547;SDS011;68292;49.600;8.746;2023-04-24T13:20:42;5.00;;;4.50;;
28547;SDS011;68292;49.600;8.746;2023-04-24T13:23:12;5.23;;;4.30;;
28547;SDS011;68292;49.600;8.746;2023-04-24T13:25:42;5.83;;;3.77;;
28547;SDS011;68292;49.600;8.746;2023-04-24T13:28:10;4.70;;;4.03;;
28547;SDS011;68292;49.600;8.746;2023-04-24T13:30:39;6.07;;;5.47;;
28547;SDS011;68292;49.600;8.746;2023-04-24T13:33:07;5.53;;;5.03;;
28547;SDS011;68292;49.600;8.746;2023-04-24T13:35:38;5.27;;;4.70;;
28547;SDS011;68292;49.600;8.746;2023-04-24T13:38:06;5.10;;;4.70;;
28547;SDS011;68292;49.600;8.746;2023-04-24T13:40:38;5.33;;;4.63;;
28547;SDS011;68292;49.600;8.746;2023-04-24T13:43:07;5.60;;;4.73;;
28547;SDS011;68292;49.600;8.746;2023-04-24T13:45:35;6.83;;;6.13;;
28547;SDS011;68292;49.600;8.746;2023-04-24T13:48:04;6.00;;;5.13;;
28547;SDS011;68292;49.600;8.746;2023-04-24T13:50:33;5.13;;;4.07;;
28547;SDS011;68292;49.600;8.746;2023-04-24T13:53:03;3.60;;;3.27;;
28547;SDS011;68292;49.600;8.746;2023-04-24T13:55:32;6.27;;;5.67;;
28547;SDS011;68292;49.600;8.746;2023-04-24T13:58:00;4.83;;;4.40;;
28547;SDS011;68292;49.600;8.746;2023-04-24T14:00:29;4.37;;;3.97;;
28547;SDS011;68292;49.600;8.746;2023-04-24T14:02:58;3.30;;;3.00;;
28547;SDS011;68292;49.600;8.746;2023-04-24T14:05:27;3.73;;;3.33;;
28547;SDS011;68292;49.600;8.746;2023-04-24T14:07:56;4.13;;;3.73;;
28547;SDS011;68292;49.600;8.746;2023-04-24T14:10:26;6.37;;;4.03;;
28547;SDS011;68292;49.600;8.746;2023-04-24T14:12:55;3.80;;;3.50;;
28547;SDS011;68292;49.600;8.746;2023-04-24T14:15:24;3.30;;;3.00;;
28547;SDS011;68292;49.600;8.746;2023-04-24T14:17:52;3.40;;;3.10;;
28547;SDS011;68292;49.600;8.746;2023-04-24T14:20:22;6.43;;;3.70;;
28547;SDS011;68292;49.600;8.746;2023-04-24T14:22:51;4.10;;;3.33;;
28547;SDS011;68292;49.600;8.746;2023-04-24T14:25:20;4.27;;;3.77;;
28547;SDS011;68292;49.600;8.746;2023-04-24T14:27:50;5.67;;;3.53;;
28547;SDS011;68292;49.600;8.746;2023-04-24T14:30:19;3.70;;;3.40;;
28547;SDS011;68292;49.600;8.746;2023-04-24T14:32:48;3.80;;;3.50;;
28547;SDS011;68292;49.600;8.746;2023-04-24T14:35:17;3.70;;;3.40;;
28547;SDS011;68292;49.600;8.746;2023-04-24T14:37:46;4.20;;;3.53;;
28547;SDS011;68292;49.600;8.746;2023-04-24T14:40:15;5.77;;;5.13;;
28547;SDS011;68292;49.600;8.746;2023-04-24T14:43:05;15.97;;;13.77;;
28547;SDS011;68292;49.600;8.746;2023-04-24T14:45:33;7.77;;;6.63;;
28547;SDS011;68292;49.600;8.746;2023-04-24T14:48:02;7.73;;;5.40;;
28547;SDS011;68292;49.600;8.746;2023-04-24T14:50:31;10.50;;;4.77;;
28547;SDS011;68292;49.600;8.746;2023-04-24T14:53:00;5.10;;;4.13;;
28547;SDS011;68292;49.600;8.746;2023-04-24T14:55:29;4.47;;;3.83;;
28547;SDS011;68292;49.600;8.746;2023-04-24T14:57:58;4.87;;;3.87;;
28547;SDS011;68292;49.600;8.746;2023-04-24T15:00:28;4.20;;;3.80;;
28547;SDS011;68292;49.600;8.746;2023-04-24T15:02:57;5.33;;;4.33;;
28547;SDS011;68292;49.600;8.746;2023-04-24T15:05:26;6.60;;;5.57;;
28547;SDS011;68292;49.600;8.746;2023-04-24T15:07:55;7.80;;;7.00;;